Terminal Aerodrome Forecast
Issued by NWS Charleston, WV

Current Version | Previous Version | Graphics & Text | Print | Product List | Glossary On
Versions: 1 2 3 4 5 6 7 8 9 10 11 12 13 14 15 16 17 18 19 20 21 22 23 24
000
FTUS41 KRLX 240250 AAA
TAFPKB
TAF AMD
KPKB 240250Z 2403/2424 VRB03KT P6SM FEW250
     FM240900 00000KT 3SM BR SCT250
     FM241200 16003KT P6SM SCT200
     FM241700 19006KT P6SM SCT050=

USA.gov is the U.S. government's official web portal to all federal, state and local government web resources and services.